sensor_id;sensor_type;location;lat;lon;timestamp;temperature;humidity
40636;DHT22;26642;55.766;37.828;2023-06-19T00:02:11;20.10;49.00
40636;DHT22;26642;55.766;37.828;2023-06-19T00:04:37;20.00;48.90
40636;DHT22;26642;55.766;37.828;2023-06-19T00:07:03;20.00;49.10
40636;DHT22;26642;55.766;37.828;2023-06-19T00:09:30;20.00;49.10
40636;DHT22;26642;55.766;37.828;2023-06-19T00:11:56;20.00;49.20
40636;DHT22;26642;55.766;37.828;2023-06-19T00:14:23;20.00;49.00
40636;DHT22;26642;55.766;37.828;2023-06-19T00:16:49;19.90;49.00
40636;DHT22;26642;55.766;37.828;2023-06-19T00:19:16;19.80;49.10
40636;DHT22;26642;55.766;37.828;2023-06-19T00:21:43;19.80;49.40
40636;DHT22;26642;55.766;37.828;2023-06-19T00:24:09;19.80;49.10
40636;DHT22;26642;55.766;37.828;2023-06-19T00:26:35;19.80;49.20
40636;DHT22;26642;55.766;37.828;2023-06-19T00:29:01;19.80;49.20
40636;DHT22;26642;55.766;37.828;2023-06-19T00:31:28;19.80;49.20
40636;DHT22;26642;55.766;37.828;2023-06-19T00:33:54;19.80;49.30
40636;DHT22;26642;55.766;37.828;2023-06-19T00:36:20;19.70;49.30
40636;DHT22;26642;55.766;37.828;2023-06-19T00:38:47;19.80;49.80
40636;DHT22;26642;55.766;37.828;2023-06-19T00:41:16;19.70;49.30
40636;DHT22;26642;55.766;37.828;2023-06-19T00:43:43;19.60;49.20
40636;DHT22;26642;55.766;37.828;2023-06-19T00:46:09;19.70;49.50
40636;DHT22;26642;55.766;37.828;2023-06-19T00:48:36;19.60;49.50
40636;DHT22;26642;55.766;37.828;2023-06-19T00:51:02;19.60;49.20
40636;DHT22;26642;55.766;37.828;2023-06-19T00:53:28;19.50;49.10
40636;DHT22;26642;55.766;37.828;2023-06-19T00:55:56;19.50;49.30
40636;DHT22;26642;55.766;37.828;2023-06-19T00:58:23;19.50;49.40
40636;DHT22;26642;55.766;37.828;2023-06-19T01:00:50;19.50;49.60
40636;DHT22;26642;55.766;37.828;2023-06-19T01:03:16;19.50;49.60
40636;DHT22;26642;55.766;37.828;2023-06-19T01:05:43;19.50;49.60
40636;DHT22;26642;55.766;37.828;2023-06-19T01:08:10;19.50;49.60
40636;DHT22;26642;55.766;37.828;2023-06-19T01:10:47;19.50;49.50
40636;DHT22;26642;55.766;37.828;2023-06-19T01:13:22;19.40;49.50
40636;DHT22;26642;55.766;37.828;2023-06-19T01:15:49;19.40;49.50
40636;DHT22;26642;55.766;37.828;2023-06-19T01:18:16;19.40;49.50
40636;DHT22;26642;55.766;37.828;2023-06-19T01:20:43;19.40;49.70
40636;DHT22;26642;55.766;37.828;2023-06-19T01:23:10;19.40;49.70
40636;DHT22;26642;55.766;37.828;2023-06-19T01:25:37;19.50;49.70
40636;DHT22;26642;55.766;37.828;2023-06-19T01:28:06;19.50;49.50
40636;DHT22;26642;55.766;37.828;2023-06-19T01:30:36;19.50;49.50
40636;DHT22;26642;55.766;37.828;2023-06-19T01:33:23;19.50;49.50
40636;DHT22;26642;55.766;37.828;2023-06-19T01:35:51;19.50;49.30
40636;DHT22;26642;55.766;37.828;2023-06-19T01:38:21;19.50;49.20
40636;DHT22;26642;55.766;37.828;2023-06-19T01:40:52;19.50;49.10
40636;DHT22;26642;55.766;37.828;2023-06-19T01:43:19;19.60;49.20
40636;DHT22;26642;55.766;37.828;2023-06-19T01:45:46;19.60;49.10
40636;DHT22;26642;55.766;37.828;2023-06-19T01:48:13;19.60;49.10
40636;DHT22;26642;55.766;37.828;2023-06-19T01:50:49;19.60;49.10
40636;DHT22;26642;55.766;37.828;2023-06-19T01:53:16;19.50;49.10
40636;DHT22;26642;55.766;37.828;2023-06-19T01:55:42;19.50;49.10
40636;DHT22;26642;55.766;37.828;2023-06-19T01:58:08;19.60;49.10
40636;DHT22;26642;55.766;37.828;2023-06-19T02:00:34;19.60;49.10
40636;DHT22;26642;55.766;37.828;2023-06-19T02:03:01;19.60;49.20
40636;DHT22;26642;55.766;37.828;2023-06-19T02:05:27;19.50;49.10
40636;DHT22;26642;55.766;37.828;2023-06-19T02:07:53;19.50;49.00
40636;DHT22;26642;55.766;37.828;2023-06-19T02:10:19;19.60;49.10
40636;DHT22;26642;55.766;37.828;2023-06-19T02:12:45;19.50;49.00
40636;DHT22;26642;55.766;37.828;2023-06-19T02:15:11;19.60;49.10
40636;DHT22;26642;55.766;37.828;2023-06-19T02:17:37;19.70;49.00
40636;DHT22;26642;55.766;37.828;2023-06-19T02:20:04;19.70;48.90
40636;DHT22;26642;55.766;37.828;2023-06-19T02:22:34;19.80;48.80
40636;DHT22;26642;55.766;37.828;2023-06-19T02:25:00;19.90;48.90
40636;DHT22;26642;55.766;37.828;2023-06-19T02:27:26;20.00;48.80
40636;DHT22;26642;55.766;37.828;2023-06-19T02:29:52;20.10;48.60
40636;DHT22;26642;55.766;37.828;2023-06-19T02:32:18;20.20;48.60
40636;DHT22;26642;55.766;37.828;2023-06-19T02:34:45;20.20;48.30
40636;DHT22;26642;55.766;37.828;2023-06-19T02:37:11;20.30;48.10
40636;DHT22;26642;55.766;37.828;2023-06-19T02:39:37;20.40;47.80
40636;DHT22;26642;55.766;37.828;2023-06-19T02:42:03;20.50;47.70
40636;DHT22;26642;55.766;37.828;2023-06-19T02:44:30;20.60;47.70
40636;DHT22;26642;55.766;37.828;2023-06-19T02:46:56;20.70;47.40
40636;DHT22;26642;55.766;37.828;2023-06-19T02:49:22;20.70;47.30
40636;DHT22;26642;55.766;37.828;2023-06-19T02:51:48;20.90;47.40
40636;DHT22;26642;55.766;37.828;2023-06-19T02:54:14;20.90;47.20
40636;DHT22;26642;55.766;37.828;2023-06-19T02:56:40;21.10;47.10
40636;DHT22;26642;55.766;37.828;2023-06-19T02:59:06;21.20;47.10
40636;DHT22;26642;55.766;37.828;2023-06-19T03:01:32;21.20;47.00
40636;DHT22;26642;55.766;37.828;2023-06-19T03:03:58;21.40;46.80
40636;DHT22;26642;55.766;37.828;2023-06-19T03:06:23;21.40;46.60
40636;DHT22;26642;55.766;37.828;2023-06-19T03:08:51;21.50;46.60
40636;DHT22;26642;55.766;37.828;2023-06-19T03:11:18;21.60;46.40
40636;DHT22;26642;55.766;37.828;2023-06-19T03:13:48;21.70;46.50
40636;DHT22;26642;55.766;37.828;2023-06-19T03:16:14;21.70;46.60
40636;DHT22;26642;55.766;37.828;2023-06-19T03:18:42;21.80;46.60
40636;DHT22;26642;55.766;37.828;2023-06-19T03:21:11;21.90;46.30
40636;DHT22;26642;55.766;37.828;2023-06-19T03:23:37;21.90;46.20
40636;DHT22;26642;55.766;37.828;2023-06-19T03:26:04;22.00;46.00
40636;DHT22;26642;55.766;37.828;2023-06-19T03:28:30;22.10;46.00
40636;DHT22;26642;55.766;37.828;2023-06-19T03:30:58;22.30;45.90
40636;DHT22;26642;55.766;37.828;2023-06-19T03:33:24;22.40;45.70
40636;DHT22;26642;55.766;37.828;2023-06-19T03:35:51;22.50;45.60
40636;DHT22;26642;55.766;37.828;2023-06-19T03:38:28;22.60;45.50
40636;DHT22;26642;55.766;37.828;2023-06-19T03:40:54;22.70;45.20
40636;DHT22;26642;55.766;37.828;2023-06-19T03:43:20;22.80;45.00
40636;DHT22;26642;55.766;37.828;2023-06-19T03:45:46;23.00;44.90
40636;DHT22;26642;55.766;37.828;2023-06-19T03:48:12;23.10;44.60
40636;DHT22;26642;55.766;37.828;2023-06-19T03:50:39;23.30;44.40
40636;DHT22;26642;55.766;37.828;2023-06-19T03:53:06;23.30;44.40
40636;DHT22;26642;55.766;37.828;2023-06-19T03:55:32;23.40;44.20
40636;DHT22;26642;55.766;37.828;2023-06-19T03:57:59;23.60;43.90
40636;DHT22;26642;55.766;37.828;2023-06-19T04:00:25;23.70;43.50
40636;DHT22;26642;55.766;37.828;2023-06-19T04:02:51;23.80;43.40
40636;DHT22;26642;55.766;37.828;2023-06-19T04:05:18;23.90;43.80
40636;DHT22;26642;55.766;37.828;2023-06-19T04:07:45;24.10;44.50
40636;DHT22;26642;55.766;37.828;2023-06-19T04:10:14;24.20;45.10
40636;DHT22;26642;55.766;37.828;2023-06-19T04:12:40;24.30;45.30
40636;DHT22;26642;55.766;37.828;2023-06-19T04:15:09;24.40;45.50
40636;DHT22;26642;55.766;37.828;2023-06-19T04:17:36;24.60;45.70
40636;DHT22;26642;55.766;37.828;2023-06-19T04:20:03;24.60;44.30
40636;DHT22;26642;55.766;37.828;2023-06-19T04:22:37;24.80;44.80
40636;DHT22;26642;55.766;37.828;2023-06-19T04:25:08;24.90;45.10
40636;DHT22;26642;55.766;37.828;2023-06-19T04:27:34;25.00;44.70
40636;DHT22;26642;55.766;37.828;2023-06-19T04:30:02;25.20;42.70
40636;DHT22;26642;55.766;37.828;2023-06-19T04:32:28;25.30;41.90
40636;DHT22;26642;55.766;37.828;2023-06-19T04:34:54;25.40;41.40
40636;DHT22;26642;55.766;37.828;2023-06-19T04:37:20;25.50;41.50
40636;DHT22;26642;55.766;37.828;2023-06-19T04:39:46;25.60;41.10
40636;DHT22;26642;55.766;37.828;2023-06-19T04:42:17;25.70;41.70
40636;DHT22;26642;55.766;37.828;2023-06-19T04:44:48;25.90;40.90
40636;DHT22;26642;55.766;37.828;2023-06-19T04:47:17;25.90;40.30
40636;DHT22;26642;55.766;37.828;2023-06-19T04:49:43;26.00;40.30
40636;DHT22;26642;55.766;37.828;2023-06-19T04:52:09;26.10;40.80
40636;DHT22;26642;55.766;37.828;2023-06-19T04:54:35;26.20;40.50
40636;DHT22;26642;55.766;37.828;2023-06-19T04:57:01;26.30;41.00
40636;DHT22;26642;55.766;37.828;2023-06-19T04:59:27;26.40;40.90
40636;DHT22;26642;55.766;37.828;2023-06-19T05:01:53;26.50;42.10
40636;DHT22;26642;55.766;37.828;2023-06-19T05:04:20;26.60;42.80
40636;DHT22;26642;55.766;37.828;2023-06-19T05:06:48;26.80;41.10
40636;DHT22;26642;55.766;37.828;2023-06-19T05:09:14;26.80;39.70
40636;DHT22;26642;55.766;37.828;2023-06-19T05:11:40;26.90;39.00
40636;DHT22;26642;55.766;37.828;2023-06-19T05:14:06;27.00;40.50
40636;DHT22;26642;55.766;37.828;2023-06-19T05:16:33;27.10;40.90
40636;DHT22;26642;55.766;37.828;2023-06-19T05:18:59;27.20;39.40
40636;DHT22;26642;55.766;37.828;2023-06-19T05:21:26;27.20;38.40
40636;DHT22;26642;55.766;37.828;2023-06-19T05:23:52;27.30;39.60
40636;DHT22;26642;55.766;37.828;2023-06-19T05:26:19;27.50;41.20
40636;DHT22;26642;55.766;37.828;2023-06-19T05:28:46;27.50;40.40
40636;DHT22;26642;55.766;37.828;2023-06-19T05:31:12;27.60;38.50
40636;DHT22;26642;55.766;37.828;2023-06-19T05:33:38;27.70;36.80
40636;DHT22;26642;55.766;37.828;2023-06-19T05:36:04;27.70;36.70
40636;DHT22;26642;55.766;37.828;2023-06-19T05:38:30;27.80;36.30
40636;DHT22;26642;55.766;37.828;2023-06-19T05:40:57;27.80;37.80
40636;DHT22;26642;55.766;37.828;2023-06-19T05:43:23;28.00;39.20
40636;DHT22;26642;55.766;37.828;2023-06-19T05:45:50;28.10;39.40
40636;DHT22;26642;55.766;37.828;2023-06-19T05:48:16;28.20;38.10
40636;DHT22;26642;55.766;37.828;2023-06-19T05:50:42;28.30;37.10
40636;DHT22;26642;55.766;37.828;2023-06-19T05:53:08;28.30;36.60
40636;DHT22;26642;55.766;37.828;2023-06-19T05:55:34;28.40;36.60
40636;DHT22;26642;55.766;37.828;2023-06-19T05:58:01;28.40;38.30
40636;DHT22;26642;55.766;37.828;2023-06-19T06:00:27;28.50;37.20
40636;DHT22;26642;55.766;37.828;2023-06-19T06:02:56;28.50;35.70
40636;DHT22;26642;55.766;37.828;2023-06-19T06:05:25;28.60;35.70
40636;DHT22;26642;55.766;37.828;2023-06-19T06:07:52;28.70;35.70
40636;DHT22;26642;55.766;37.828;2023-06-19T06:10:23;28.70;37.70
40636;DHT22;26642;55.766;37.828;2023-06-19T06:12:49;28.80;36.60
40636;DHT22;26642;55.766;37.828;2023-06-19T06:15:16;28.70;35.50
40636;DHT22;26642;55.766;37.828;2023-06-19T06:17:42;28.80;35.30
40636;DHT22;26642;55.766;37.828;2023-06-19T06:20:09;28.80;34.90
40636;DHT22;26642;55.766;37.828;2023-06-19T06:22:39;28.80;34.60
40636;DHT22;26642;55.766;37.828;2023-06-19T06:25:06;28.80;35.00
40636;DHT22;26642;55.766;37.828;2023-06-19T06:27:32;28.90;34.80
40636;DHT22;26642;55.766;37.828;2023-06-19T06:29:58;28.90;34.90
40636;DHT22;26642;55.766;37.828;2023-06-19T06:32:24;28.80;33.90
40636;DHT22;26642;55.766;37.828;2023-06-19T06:34:51;28.80;34.20
40636;DHT22;26642;55.766;37.828;2023-06-19T06:37:17;28.90;35.00
40636;DHT22;26642;55.766;37.828;2023-06-19T06:39:48;28.90;35.50
40636;DHT22;26642;55.766;37.828;2023-06-19T06:42:18;29.00;34.10
40636;DHT22;26642;55.766;37.828;2023-06-19T06:44:45;28.90;33.70
40636;DHT22;26642;55.766;37.828;2023-06-19T06:47:11;28.80;33.90
40636;DHT22;26642;55.766;37.828;2023-06-19T06:49:37;28.80;34.00
40636;DHT22;26642;55.766;37.828;2023-06-19T06:52:04;28.70;34.00
40636;DHT22;26642;55.766;37.828;2023-06-19T06:54:30;28.70;34.60
40636;DHT22;26642;55.766;37.828;2023-06-19T06:56:57;28.70;34.60
40636;DHT22;26642;55.766;37.828;2023-06-19T06:59:27;28.80;36.00
40636;DHT22;26642;55.766;37.828;2023-06-19T07:01:54;28.90;36.20
40636;DHT22;26642;55.766;37.828;2023-06-19T07:04:20;29.00;35.50
40636;DHT22;26642;55.766;37.828;2023-06-19T07:06:46;28.90;34.50
40636;DHT22;26642;55.766;37.828;2023-06-19T07:09:12;28.80;34.10
40636;DHT22;26642;55.766;37.828;2023-06-19T07:11:38;28.80;34.30
40636;DHT22;26642;55.766;37.828;2023-06-19T07:14:04;28.80;34.30
40636;DHT22;26642;55.766;37.828;2023-06-19T07:16:30;28.70;34.10
40636;DHT22;26642;55.766;37.828;2023-06-19T07:18:56;28.50;34.10
40636;DHT22;26642;55.766;37.828;2023-06-19T07:21:22;28.50;34.60
40636;DHT22;26642;55.766;37.828;2023-06-19T07:23:48;28.60;35.10
40636;DHT22;26642;55.766;37.828;2023-06-19T07:26:15;28.60;34.30
40636;DHT22;26642;55.766;37.828;2023-06-19T07:28:41;28.40;34.00
40636;DHT22;26642;55.766;37.828;2023-06-19T07:31:07;28.20;34.30
40636;DHT22;26642;55.766;37.828;2023-06-19T07:33:34;28.20;34.30
40636;DHT22;26642;55.766;37.828;2023-06-19T07:36:01;28.20;34.60
40636;DHT22;26642;55.766;37.828;2023-06-19T07:38:28;28.20;35.00
40636;DHT22;26642;55.766;37.828;2023-06-19T07:40:54;28.30;35.40
40636;DHT22;26642;55.766;37.828;2023-06-19T07:43:20;28.40;35.80
40636;DHT22;26642;55.766;37.828;2023-06-19T07:45:48;28.40;34.90
40636;DHT22;26642;55.766;37.828;2023-06-19T07:48:15;28.20;34.50
40636;DHT22;26642;55.766;37.828;2023-06-19T07:50:41;28.10;34.50
40636;DHT22;26642;55.766;37.828;2023-06-19T07:53:07;28.00;34.70
40636;DHT22;26642;55.766;37.828;2023-06-19T07:55:33;28.10;35.60
40636;DHT22;26642;55.766;37.828;2023-06-19T07:58:01;28.00;34.50
40636;DHT22;26642;55.766;37.828;2023-06-19T08:00:27;27.90;34.60
40636;DHT22;26642;55.766;37.828;2023-06-19T08:02:53;27.90;35.40
40636;DHT22;26642;55.766;37.828;2023-06-19T08:05:19;28.00;35.40
40636;DHT22;26642;55.766;37.828;2023-06-19T08:07:45;28.00;36.30
40636;DHT22;26642;55.766;37.828;2023-06-19T08:10:11;28.00;35.60
40636;DHT22;26642;55.766;37.828;2023-06-19T08:12:37;28.00;35.20
40636;DHT22;26642;55.766;37.828;2023-06-19T08:15:03;27.80;35.00
40636;DHT22;26642;55.766;37.828;2023-06-19T08:17:29;27.80;35.90
40636;DHT22;26642;55.766;37.828;2023-06-19T08:19:55;27.80;40.10
40636;DHT22;26642;55.766;37.828;2023-06-19T08:22:21;27.80;41.60
40636;DHT22;26642;55.766;37.828;2023-06-19T08:24:47;27.70;41.90
40636;DHT22;26642;55.766;37.828;2023-06-19T08:27:13;27.70;42.80
40636;DHT22;26642;55.766;37.828;2023-06-19T08:29:39;27.60;37.80
40636;DHT22;26642;55.766;37.828;2023-06-19T08:32:05;27.60;41.00
40636;DHT22;26642;55.766;37.828;2023-06-19T08:34:33;27.50;38.40
40636;DHT22;26642;55.766;37.828;2023-06-19T08:36:59;27.40;36.80
40636;DHT22;26642;55.766;37.828;2023-06-19T08:39:25;27.30;34.80
40636;DHT22;26642;55.766;37.828;2023-06-19T08:41:51;27.10;34.50
40636;DHT22;26642;55.766;37.828;2023-06-19T08:44:19;27.10;35.00
40636;DHT22;26642;55.766;37.828;2023-06-19T08:46:45;26.90;34.80
40636;DHT22;26642;55.766;37.828;2023-06-19T08:49:11;26.90;37.80
40636;DHT22;26642;55.766;37.828;2023-06-19T08:51:37;26.80;35.80
40636;DHT22;26642;55.766;37.828;2023-06-19T08:54:06;26.80;35.90
40636;DHT22;26642;55.766;37.828;2023-06-19T08:56:32;26.80;36.40
40636;DHT22;26642;55.766;37.828;2023-06-19T08:59:15;26.70;35.60
40636;DHT22;26642;55.766;37.828;2023-06-19T09:01:47;26.70;39.00
40636;DHT22;26642;55.766;37.828;2023-06-19T09:04:26;26.80;44.40
40636;DHT22;26642;55.766;37.828;2023-06-19T09:06:58;26.80;42.90
40636;DHT22;26642;55.766;37.828;2023-06-19T09:09:25;26.80;47.00
40636;DHT22;26642;55.766;37.828;2023-06-19T09:12:20;26.80;42.60
40636;DHT22;26642;55.766;37.828;2023-06-19T09:14:55;26.80;41.60
40636;DHT22;26642;55.766;37.828;2023-06-19T09:17:21;26.70;37.40
40636;DHT22;26642;55.766;37.828;2023-06-19T09:19:54;26.60;37.00
40636;DHT22;26642;55.766;37.828;2023-06-19T09:22:23;26.60;40.50
40636;DHT22;26642;55.766;37.828;2023-06-19T09:24:50;26.60;37.50
40636;DHT22;26642;55.766;37.828;2023-06-19T09:27:18;26.60;45.20
40636;DHT22;26642;55.766;37.828;2023-06-19T09:29:49;26.60;38.80
40636;DHT22;26642;55.766;37.828;2023-06-19T09:32:20;26.50;37.40
40636;DHT22;26642;55.766;37.828;2023-06-19T09:34:49;26.40;37.10
40636;DHT22;26642;55.766;37.828;2023-06-19T09:37:22;26.40;37.60
40636;DHT22;26642;55.766;37.828;2023-06-19T09:39:56;26.40;43.80
40636;DHT22;26642;55.766;37.828;2023-06-19T09:42:35;26.50;45.40
40636;DHT22;26642;55.766;37.828;2023-06-19T09:45:03;26.50;44.80
40636;DHT22;26642;55.766;37.828;2023-06-19T09:47:47;26.50;46.50
40636;DHT22;26642;55.766;37.828;2023-06-19T09:50:14;26.50;46.30
40636;DHT22;26642;55.766;37.828;2023-06-19T09:52:43;26.50;42.60
40636;DHT22;26642;55.766;37.828;2023-06-19T09:55:11;26.50;39.20
40636;DHT22;26642;55.766;37.828;2023-06-19T09:57:41;26.30;36.00
40636;DHT22;26642;55.766;37.828;2023-06-19T10:00:09;26.20;34.50
40636;DHT22;26642;55.766;37.828;2023-06-19T10:02:42;26.00;34.10
40636;DHT22;26642;55.766;37.828;2023-06-19T10:05:08;25.90;35.30
40636;DHT22;26642;55.766;37.828;2023-06-19T10:07:41;25.90;36.00
40636;DHT22;26642;55.766;37.828;2023-06-19T10:10:12;26.00;37.40
40636;DHT22;26642;55.766;37.828;2023-06-19T10:12:47;26.00;38.70
40636;DHT22;26642;55.766;37.828;2023-06-19T10:17:59;26.10;41.20
40636;DHT22;26642;55.766;37.828;2023-06-19T10:20:31;26.10;38.70
40636;DHT22;26642;55.766;37.828;2023-06-19T10:23:02;25.90;34.40
40636;DHT22;26642;55.766;37.828;2023-06-19T10:25:31;25.70;34.50
40636;DHT22;26642;55.766;37.828;2023-06-19T10:27:58;25.70;34.80
40636;DHT22;26642;55.766;37.828;2023-06-19T10:30:24;25.80;36.40
40636;DHT22;26642;55.766;37.828;2023-06-19T10:32:50;25.70;33.90
40636;DHT22;26642;55.766;37.828;2023-06-19T10:35:18;25.80;36.00
40636;DHT22;26642;55.766;37.828;2023-06-19T10:37:47;25.80;34.60
40636;DHT22;26642;55.766;37.828;2023-06-19T10:40:14;25.70;34.10
40636;DHT22;26642;55.766;37.828;2023-06-19T10:42:40;25.70;33.90
40636;DHT22;26642;55.766;37.828;2023-06-19T10:45:10;25.70;34.40
40636;DHT22;26642;55.766;37.828;2023-06-19T10:47:43;25.60;34.90
40636;DHT22;26642;55.766;37.828;2023-06-19T10:50:19;25.70;35.20
40636;DHT22;26642;55.766;37.828;2023-06-19T10:52:45;25.60;34.90
40636;DHT22;26642;55.766;37.828;2023-06-19T10:55:12;25.60;34.70
40636;DHT22;26642;55.766;37.828;2023-06-19T10:57:50;25.70;36.40
40636;DHT22;26642;55.766;37.828;2023-06-19T11:00:31;25.70;36.30
40636;DHT22;26642;55.766;37.828;2023-06-19T11:02:57;25.70;35.00
40636;DHT22;26642;55.766;37.828;2023-06-19T11:05:25;25.70;36.20
40636;DHT22;26642;55.766;37.828;2023-06-19T11:08:00;25.70;37.10
40636;DHT22;26642;55.766;37.828;2023-06-19T11:10:28;25.80;36.90
40636;DHT22;26642;55.766;37.828;2023-06-19T11:12:58;25.70;35.10
40636;DHT22;26642;55.766;37.828;2023-06-19T11:15:32;25.70;36.00
40636;DHT22;26642;55.766;37.828;2023-06-19T11:17:59;25.70;36.80
40636;DHT22;26642;55.766;37.828;2023-06-19T11:20:25;25.80;36.80
40636;DHT22;26642;55.766;37.828;2023-06-19T11:22:59;25.80;37.00
40636;DHT22;26642;55.766;37.828;2023-06-19T11:25:39;25.70;34.70
40636;DHT22;26642;55.766;37.828;2023-06-19T11:28:14;25.60;35.40
40636;DHT22;26642;55.766;37.828;2023-06-19T11:30:40;25.70;36.50
40636;DHT22;26642;55.766;37.828;2023-06-19T11:33:19;25.70;36.30
40636;DHT22;26642;55.766;37.828;2023-06-19T11:35:52;25.60;35.60
40636;DHT22;26642;55.766;37.828;2023-06-19T11:38:25;25.50;35.50
40636;DHT22;26642;55.766;37.828;2023-06-19T11:40:53;25.60;38.40
40636;DHT22;26642;55.766;37.828;2023-06-19T11:43:31;25.60;40.60
40636;DHT22;26642;55.766;37.828;2023-06-19T11:46:05;25.70;41.40
40636;DHT22;26642;55.766;37.828;2023-06-19T11:48:32;25.70;43.90
40636;DHT22;26642;55.766;37.828;2023-06-19T11:50:58;25.70;44.70
40636;DHT22;26642;55.766;37.828;2023-06-19T11:53:24;25.70;45.60
40636;DHT22;26642;55.766;37.828;2023-06-19T11:55:51;25.70;42.40
40636;DHT22;26642;55.766;37.828;2023-06-19T11:58:17;25.70;38.00
40636;DHT22;26642;55.766;37.828;2023-06-19T12:00:45;25.60;37.50
40636;DHT22;26642;55.766;37.828;2023-06-19T12:03:11;25.60;36.50
40636;DHT22;26642;55.766;37.828;2023-06-19T12:05:37;25.40;34.80
40636;DHT22;26642;55.766;37.828;2023-06-19T12:08:04;25.40;34.80
40636;DHT22;26642;55.766;37.828;2023-06-19T12:10:30;25.30;34.80
40636;DHT22;26642;55.766;37.828;2023-06-19T12:12:56;25.20;34.90
40636;DHT22;26642;55.766;37.828;2023-06-19T12:15:24;25.20;35.00
40636;DHT22;26642;55.766;37.828;2023-06-19T12:17:50;25.20;35.30
40636;DHT22;26642;55.766;37.828;2023-06-19T12:20:16;25.20;36.90
40636;DHT22;26642;55.766;37.828;2023-06-19T12:22:42;25.20;36.00
40636;DHT22;26642;55.766;37.828;2023-06-19T12:25:09;25.20;36.00
40636;DHT22;26642;55.766;37.828;2023-06-19T12:27:34;25.20;37.00
40636;DHT22;26642;55.766;37.828;2023-06-19T12:30:00;25.30;37.10
40636;DHT22;26642;55.766;37.828;2023-06-19T12:32:26;25.30;37.30
40636;DHT22;26642;55.766;37.828;2023-06-19T12:34:52;25.30;39.40
40636;DHT22;26642;55.766;37.828;2023-06-19T12:37:22;25.40;39.10
40636;DHT22;26642;55.766;37.828;2023-06-19T12:39:50;25.40;42.40
40636;DHT22;26642;55.766;37.828;2023-06-19T12:42:16;25.50;45.00
40636;DHT22;26642;55.766;37.828;2023-06-19T12:44:42;25.50;44.00
40636;DHT22;26642;55.766;37.828;2023-06-19T12:47:10;25.50;39.60
40636;DHT22;26642;55.766;37.828;2023-06-19T12:49:36;25.40;36.90
40636;DHT22;26642;55.766;37.828;2023-06-19T12:52:03;25.40;35.90
40636;DHT22;26642;55.766;37.828;2023-06-19T12:54:29;25.30;35.80
40636;DHT22;26642;55.766;37.828;2023-06-19T12:56:55;25.20;35.40
40636;DHT22;26642;55.766;37.828;2023-06-19T12:59:21;25.30;36.10
40636;DHT22;26642;55.766;37.828;2023-06-19T13:01:47;25.30;37.00
40636;DHT22;26642;55.766;37.828;2023-06-19T13:04:13;25.30;36.20
40636;DHT22;26642;55.766;37.828;2023-06-19T13:06:39;25.30;36.30
40636;DHT22;26642;55.766;37.828;2023-06-19T13:09:06;25.30;37.40
40636;DHT22;26642;55.766;37.828;2023-06-19T13:11:32;25.40;40.30
40636;DHT22;26642;55.766;37.828;2023-06-19T13:14:00;25.50;42.30
40636;DHT22;26642;55.766;37.828;2023-06-19T13:16:26;25.50;43.10
40636;DHT22;26642;55.766;37.828;2023-06-19T13:18:52;25.50;40.40
40636;DHT22;26642;55.766;37.828;2023-06-19T13:21:18;25.50;37.90
40636;DHT22;26642;55.766;37.828;2023-06-19T13:23:44;25.50;37.90
40636;DHT22;26642;55.766;37.828;2023-06-19T13:26:10;25.50;40.60
40636;DHT22;26642;55.766;37.828;2023-06-19T13:28:36;25.60;39.60
40636;DHT22;26642;55.766;37.828;2023-06-19T13:31:03;25.50;37.30
40636;DHT22;26642;55.766;37.828;2023-06-19T13:33:29;25.40;38.10
40636;DHT22;26642;55.766;37.828;2023-06-19T13:35:55;25.40;37.00
40636;DHT22;26642;55.766;37.828;2023-06-19T13:38:21;25.40;37.80
40636;DHT22;26642;55.766;37.828;2023-06-19T13:40:47;25.40;36.90
40636;DHT22;26642;55.766;37.828;2023-06-19T13:43:14;25.30;36.50
40636;DHT22;26642;55.766;37.828;2023-06-19T13:45:40;25.20;36.30
40636;DHT22;26642;55.766;37.828;2023-06-19T13:48:06;25.20;37.00
40636;DHT22;26642;55.766;37.828;2023-06-19T13:50:33;25.20;37.70
40636;DHT22;26642;55.766;37.828;2023-06-19T13:53:00;25.20;36.60
40636;DHT22;26642;55.766;37.828;2023-06-19T13:55:26;25.00;35.90
40636;DHT22;26642;55.766;37.828;2023-06-19T13:57:52;25.00;36.90
40636;DHT22;26642;55.766;37.828;2023-06-19T14:00:20;25.00;37.10
40636;DHT22;26642;55.766;37.828;2023-06-19T14:02:46;25.10;38.20
40636;DHT22;26642;55.766;37.828;2023-06-19T14:05:12;25.00;36.20
40636;DHT22;26642;55.766;37.828;2023-06-19T14:07:41;25.00;36.20
40636;DHT22;26642;55.766;37.828;2023-06-19T14:10:08;24.90;36.00
40636;DHT22;26642;55.766;37.828;2023-06-19T14:12:34;25.00;37.00
40636;DHT22;26642;55.766;37.828;2023-06-19T14:15:01;24.90;36.70
40636;DHT22;26642;55.766;37.828;2023-06-19T14:17:27;25.00;37.50
40636;DHT22;26642;55.766;37.828;2023-06-19T14:19:53;24.90;37.00
40636;DHT22;26642;55.766;37.828;2023-06-19T14:22:21;24.90;37.60
40636;DHT22;26642;55.766;37.828;2023-06-19T14:24:47;24.90;37.30
40636;DHT22;26642;55.766;37.828;2023-06-19T14:27:13;24.90;37.50
40636;DHT22;26642;55.766;37.828;2023-06-19T14:29:39;24.90;37.00
40636;DHT22;26642;55.766;37.828;2023-06-19T14:32:05;24.80;36.20
40636;DHT22;26642;55.766;37.828;2023-06-19T14:34:31;24.80;36.10
40636;DHT22;26642;55.766;37.828;2023-06-19T14:36:57;24.80;36.00
40636;DHT22;26642;55.766;37.828;2023-06-19T14:39:23;24.70;35.80
40636;DHT22;26642;55.766;37.828;2023-06-19T14:41:49;24.60;35.70
40636;DHT22;26642;55.766;37.828;2023-06-19T14:44:14;24.60;35.60
40636;DHT22;26642;55.766;37.828;2023-06-19T14:46:41;24.60;35.60
40636;DHT22;26642;55.766;37.828;2023-06-19T14:49:07;24.60;35.80
40636;DHT22;26642;55.766;37.828;2023-06-19T14:51:33;24.60;35.70
40636;DHT22;26642;55.766;37.828;2023-06-19T14:54:00;24.60;35.60
40636;DHT22;26642;55.766;37.828;2023-06-19T14:56:26;24.50;35.80
40636;DHT22;26642;55.766;37.828;2023-06-19T14:58:52;24.50;35.90
40636;DHT22;26642;55.766;37.828;2023-06-19T15:01:17;24.50;35.50
40636;DHT22;26642;55.766;37.828;2023-06-19T15:03:44;24.50;35.40
40636;DHT22;26642;55.766;37.828;2023-06-19T15:06:09;24.50;35.10
40636;DHT22;26642;55.766;37.828;2023-06-19T15:08:35;24.50;35.90
40636;DHT22;26642;55.766;37.828;2023-06-19T15:11:04;24.50;35.90
40636;DHT22;26642;55.766;37.828;2023-06-19T15:13:31;24.50;36.50
40636;DHT22;26642;55.766;37.828;2023-06-19T15:15:57;24.50;37.20
40636;DHT22;26642;55.766;37.828;2023-06-19T15:18:24;24.60;37.40
40636;DHT22;26642;55.766;37.828;2023-06-19T15:20:50;24.60;37.60